Terminal Aerodrome Forecast
Issued by NWS

Home | Current Version | Previous Version | Graphics & Text | Print | Product List | Glossary On
Versions: 1 2 3 4 5 6 7 8 9 10 11 12 13 14 15 16 17
000
FTUS43 KICT 241720
TAFSLN
TAF
KSLN 241720Z 2418/2518 33021G29KT P6SM VCSH OVC015
     FM242000 35022G30KT P6SM OVC025
     FM242200 35022G30KT P6SM OVC040
     FM250300 33016KT P6SM BKN140
     FM250800 32009KT P6SM SCT250
     FM251700 27005KT P6SM FEW200=

USA.gov is the U.S. government's official web portal to all federal, state and local government web resources and services.